sensor_id;sensor_type;location;lat;lon;timestamp;temperature;humidity
4934;DHT22;2482;49.154;8.254;2022-11-25T00:01:29;2.90;99.90
4934;DHT22;2482;49.154;8.254;2022-11-25T00:03:57;3.00;99.90
4934;DHT22;2482;49.154;8.254;2022-11-25T00:06:33;3.20;99.90
4934;DHT22;2482;49.154;8.254;2022-11-25T00:09:06;3.00;99.90
4934;DHT22;2482;49.154;8.254;2022-11-25T00:11:37;3.00;99.90
4934;DHT22;2482;49.154;8.254;2022-11-25T00:14:08;3.00;99.90
4934;DHT22;2482;49.154;8.254;2022-11-25T00:16:38;2.90;99.90
4934;DHT22;2482;49.154;8.254;2022-11-25T00:19:13;2.90;99.90
4934;DHT22;2482;49.154;8.254;2022-11-25T00:21:40;2.90;99.90
4934;DHT22;2482;49.154;8.254;2022-11-25T00:24:07;2.90;99.90
4934;DHT22;2482;49.154;8.254;2022-11-25T00:26:35;2.60;99.90
4934;DHT22;2482;49.154;8.254;2022-11-25T00:29:04;2.70;99.90
4934;DHT22;2482;49.154;8.254;2022-11-25T00:31:34;2.80;99.90
4934;DHT22;2482;49.154;8.254;2022-11-25T00:34:02;3.00;99.90
4934;DHT22;2482;49.154;8.254;2022-11-25T00:36:32;2.90;99.90
4934;DHT22;2482;49.154;8.254;2022-11-25T00:39:13;2.90;99.90
4934;DHT22;2482;49.154;8.254;2022-11-25T00:41:42;3.00;99.90
4934;DHT22;2482;49.154;8.254;2022-11-25T00:44:29;3.20;99.90
4934;DHT22;2482;49.154;8.254;2022-11-25T00:47:30;3.00;99.90
4934;DHT22;2482;49.154;8.254;2022-11-25T00:49:57;3.40;99.90
4934;DHT22;2482;49.154;8.254;2022-11-25T00:52:25;3.50;99.90
4934;DHT22;2482;49.154;8.254;2022-11-25T00:54:56;3.20;99.90
4934;DHT22;2482;49.154;8.254;2022-11-25T00:57:23;3.40;99.90
4934;DHT22;2482;49.154;8.254;2022-11-25T00:59:50;3.20;99.90
4934;DHT22;2482;49.154;8.254;2022-11-25T01:02:18;3.10;99.90
4934;DHT22;2482;49.154;8.254;2022-11-25T01:04:45;2.90;99.90
4934;DHT22;2482;49.154;8.254;2022-11-25T01:07:13;3.20;99.90
4934;DHT22;2482;49.154;8.254;2022-11-25T01:09:41;3.30;99.90
4934;DHT22;2482;49.154;8.254;2022-11-25T01:12:08;3.20;99.90
4934;DHT22;2482;49.154;8.254;2022-11-25T01:14:35;3.30;99.90
4934;DHT22;2482;49.154;8.254;2022-11-25T01:17:03;3.30;99.90
4934;DHT22;2482;49.154;8.254;2022-11-25T01:19:30;3.60;99.90
4934;DHT22;2482;49.154;8.254;2022-11-25T01:21:57;3.50;99.90
4934;DHT22;2482;49.154;8.254;2022-11-25T01:24:24;3.50;99.90
4934;DHT22;2482;49.154;8.254;2022-11-25T01:26:53;3.40;99.90
4934;DHT22;2482;49.154;8.254;2022-11-25T01:29:21;3.40;99.90
4934;DHT22;2482;49.154;8.254;2022-11-25T01:31:48;3.30;99.90
4934;DHT22;2482;49.154;8.254;2022-11-25T01:34:18;3.50;99.90
4934;DHT22;2482;49.154;8.254;2022-11-25T01:36:47;3.80;99.90
4934;DHT22;2482;49.154;8.254;2022-11-25T01:39:18;3.70;99.90
4934;DHT22;2482;49.154;8.254;2022-11-25T01:41:55;3.70;99.90
4934;DHT22;2482;49.154;8.254;2022-11-25T01:44:27;3.70;99.90
4934;DHT22;2482;49.154;8.254;2022-11-25T01:49:55;3.60;99.90
4934;DHT22;2482;49.154;8.254;2022-11-25T01:52:39;3.50;99.90
4934;DHT22;2482;49.154;8.254;2022-11-25T01:55:11;3.50;99.90
4934;DHT22;2482;49.154;8.254;2022-11-25T01:57:50;3.50;99.90
4934;DHT22;2482;49.154;8.254;2022-11-25T02:00:20;3.60;99.90
4934;DHT22;2482;49.154;8.254;2022-11-25T02:02:49;3.30;99.90
4934;DHT22;2482;49.154;8.254;2022-11-25T02:05:22;3.10;99.90
4934;DHT22;2482;49.154;8.254;2022-11-25T02:07:59;3.00;99.90
4934;DHT22;2482;49.154;8.254;2022-11-25T02:10:28;3.10;99.90
4934;DHT22;2482;49.154;8.254;2022-11-25T02:12:57;3.10;99.90
4934;DHT22;2482;49.154;8.254;2022-11-25T02:15:24;3.00;99.90
4934;DHT22;2482;49.154;8.254;2022-11-25T02:17:52;3.10;99.90
4934;DHT22;2482;49.154;8.254;2022-11-25T02:20:21;3.20;99.90
4934;DHT22;2482;49.154;8.254;2022-11-25T02:22:56;3.30;99.90
4934;DHT22;2482;49.154;8.254;2022-11-25T02:25:44;3.20;99.90
4934;DHT22;2482;49.154;8.254;2022-11-25T02:28:15;3.30;99.90
4934;DHT22;2482;49.154;8.254;2022-11-25T02:30:50;3.60;99.90
4934;DHT22;2482;49.154;8.254;2022-11-25T02:33:18;3.60;99.90
4934;DHT22;2482;49.154;8.254;2022-11-25T02:35:49;3.50;99.90
4934;DHT22;2482;49.154;8.254;2022-11-25T02:38:43;3.50;99.90
4934;DHT22;2482;49.154;8.254;2022-11-25T02:44:06;3.60;99.90
4934;DHT22;2482;49.154;8.254;2022-11-25T02:46:33;3.70;99.90
4934;DHT22;2482;49.154;8.254;2022-11-25T02:49:03;3.80;99.90
4934;DHT22;2482;49.154;8.254;2022-11-25T02:51:36;3.80;99.90
4934;DHT22;2482;49.154;8.254;2022-11-25T02:54:05;4.00;99.90
4934;DHT22;2482;49.154;8.254;2022-11-25T02:56:34;3.80;99.90
4934;DHT22;2482;49.154;8.254;2022-11-25T02:59:02;3.80;99.90
4934;DHT22;2482;49.154;8.254;2022-11-25T03:01:31;3.80;99.90
4934;DHT22;2482;49.154;8.254;2022-11-25T03:03:58;3.70;99.90
4934;DHT22;2482;49.154;8.254;2022-11-25T03:06:26;3.50;99.90
4934;DHT22;2482;49.154;8.254;2022-11-25T03:08:54;3.20;99.90
4934;DHT22;2482;49.154;8.254;2022-11-25T03:11:21;3.20;99.90
4934;DHT22;2482;49.154;8.254;2022-11-25T03:14:08;3.20;99.90
4934;DHT22;2482;49.154;8.254;2022-11-25T03:16:36;3.10;99.90
4934;DHT22;2482;49.154;8.254;2022-11-25T03:19:03;3.30;99.90
4934;DHT22;2482;49.154;8.254;2022-11-25T03:21:30;3.40;99.90
4934;DHT22;2482;49.154;8.254;2022-11-25T03:23:57;3.60;99.90
4934;DHT22;2482;49.154;8.254;2022-11-25T03:26:24;3.50;99.90
4934;DHT22;2482;49.154;8.254;2022-11-25T03:28:51;3.60;99.90
4934;DHT22;2482;49.154;8.254;2022-11-25T03:31:18;3.50;99.90
4934;DHT22;2482;49.154;8.254;2022-11-25T03:33:45;3.60;99.90
4934;DHT22;2482;49.154;8.254;2022-11-25T03:36:13;3.70;99.90
4934;DHT22;2482;49.154;8.254;2022-11-25T03:38:40;3.60;99.90
4934;DHT22;2482;49.154;8.254;2022-11-25T03:41:07;3.70;99.90
4934;DHT22;2482;49.154;8.254;2022-11-25T03:43:34;4.00;99.90
4934;DHT22;2482;49.154;8.254;2022-11-25T03:46:01;3.70;99.90
4934;DHT22;2482;49.154;8.254;2022-11-25T03:48:28;4.00;99.90
4934;DHT22;2482;49.154;8.254;2022-11-25T03:50:55;4.00;99.90
4934;DHT22;2482;49.154;8.254;2022-11-25T03:53:22;3.80;99.90
4934;DHT22;2482;49.154;8.254;2022-11-25T03:55:49;4.00;99.90
4934;DHT22;2482;49.154;8.254;2022-11-25T03:58:16;3.90;99.90
4934;DHT22;2482;49.154;8.254;2022-11-25T04:00:45;4.00;99.90
4934;DHT22;2482;49.154;8.254;2022-11-25T04:03:12;4.00;99.90
4934;DHT22;2482;49.154;8.254;2022-11-25T04:05:38;3.70;99.90
4934;DHT22;2482;49.154;8.254;2022-11-25T04:08:05;3.60;99.90
4934;DHT22;2482;49.154;8.254;2022-11-25T04:10:32;3.70;99.90
4934;DHT22;2482;49.154;8.254;2022-11-25T04:12:59;3.50;99.90
4934;DHT22;2482;49.154;8.254;2022-11-25T04:15:27;3.50;99.90
4934;DHT22;2482;49.154;8.254;2022-11-25T04:17:54;3.40;99.90
4934;DHT22;2482;49.154;8.254;2022-11-25T04:20:21;3.50;99.90
4934;DHT22;2482;49.154;8.254;2022-11-25T04:22:48;3.50;99.90
4934;DHT22;2482;49.154;8.254;2022-11-25T04:25:15;3.70;99.90
4934;DHT22;2482;49.154;8.254;2022-11-25T04:27:42;3.70;99.90
4934;DHT22;2482;49.154;8.254;2022-11-25T04:30:10;3.70;99.90
4934;DHT22;2482;49.154;8.254;2022-11-25T04:32:38;3.80;99.90
4934;DHT22;2482;49.154;8.254;2022-11-25T04:35:05;3.60;99.90
4934;DHT22;2482;49.154;8.254;2022-11-25T04:37:33;3.70;99.90
4934;DHT22;2482;49.154;8.254;2022-11-25T04:40:00;3.80;99.90
4934;DHT22;2482;49.154;8.254;2022-11-25T04:42:27;3.70;99.90
4934;DHT22;2482;49.154;8.254;2022-11-25T04:45:10;3.70;99.90
4934;DHT22;2482;49.154;8.254;2022-11-25T04:47:58;3.60;99.90
4934;DHT22;2482;49.154;8.254;2022-11-25T04:50:25;3.50;99.90
4934;DHT22;2482;49.154;8.254;2022-11-25T04:52:52;3.50;99.90
4934;DHT22;2482;49.154;8.254;2022-11-25T04:55:20;3.70;99.90
4934;DHT22;2482;49.154;8.254;2022-11-25T04:57:46;3.60;99.90
4934;DHT22;2482;49.154;8.254;2022-11-25T05:00:14;3.80;99.90
4934;DHT22;2482;49.154;8.254;2022-11-25T05:02:41;3.70;99.90
4934;DHT22;2482;49.154;8.254;2022-11-25T05:05:08;3.50;99.90
4934;DHT22;2482;49.154;8.254;2022-11-25T05:07:35;3.70;99.90
4934;DHT22;2482;49.154;8.254;2022-11-25T05:10:03;3.30;99.90
4934;DHT22;2482;49.154;8.254;2022-11-25T05:12:30;3.20;99.90
4934;DHT22;2482;49.154;8.254;2022-11-25T05:14:57;3.10;99.90
4934;DHT22;2482;49.154;8.254;2022-11-25T05:17:29;3.00;99.90
4934;DHT22;2482;49.154;8.254;2022-11-25T05:19:56;2.90;99.90
4934;DHT22;2482;49.154;8.254;2022-11-25T05:22:27;3.00;99.90
4934;DHT22;2482;49.154;8.254;2022-11-25T05:24:55;3.00;99.90
4934;DHT22;2482;49.154;8.254;2022-11-25T05:27:24;3.20;99.90
4934;DHT22;2482;49.154;8.254;2022-11-25T05:29:51;3.20;99.90
4934;DHT22;2482;49.154;8.254;2022-11-25T05:32:22;3.50;99.90
4934;DHT22;2482;49.154;8.254;2022-11-25T05:34:49;3.50;99.90
4934;DHT22;2482;49.154;8.254;2022-11-25T05:37:16;3.40;99.90
4934;DHT22;2482;49.154;8.254;2022-11-25T05:39:50;3.60;99.90
4934;DHT22;2482;49.154;8.254;2022-11-25T05:42:17;3.50;99.90
4934;DHT22;2482;49.154;8.254;2022-11-25T05:44:44;3.60;99.90
4934;DHT22;2482;49.154;8.254;2022-11-25T05:47:11;3.60;99.90
4934;DHT22;2482;49.154;8.254;2022-11-25T05:49:38;3.40;99.90
4934;DHT22;2482;49.154;8.254;2022-11-25T05:52:05;3.40;99.90
4934;DHT22;2482;49.154;8.254;2022-11-25T05:54:32;3.60;99.90
4934;DHT22;2482;49.154;8.254;2022-11-25T05:57:02;3.30;99.90
4934;DHT22;2482;49.154;8.254;2022-11-25T05:59:29;3.20;99.90
4934;DHT22;2482;49.154;8.254;2022-11-25T06:01:55;3.20;99.90
4934;DHT22;2482;49.154;8.254;2022-11-25T06:04:40;3.30;99.90
4934;DHT22;2482;49.154;8.254;2022-11-25T06:07:29;3.40;99.90
4934;DHT22;2482;49.154;8.254;2022-11-25T06:09:57;3.90;99.90
4934;DHT22;2482;49.154;8.254;2022-11-25T06:12:32;3.90;99.90
4934;DHT22;2482;49.154;8.254;2022-11-25T06:15:00;3.90;99.90
4934;DHT22;2482;49.154;8.254;2022-11-25T06:17:27;3.90;99.90
4934;DHT22;2482;49.154;8.254;2022-11-25T06:19:55;4.20;99.90
4934;DHT22;2482;49.154;8.254;2022-11-25T06:22:22;4.30;99.90
4934;DHT22;2482;49.154;8.254;2022-11-25T06:24:50;4.10;99.90
4934;DHT22;2482;49.154;8.254;2022-11-25T06:27:26;4.20;99.90
4934;DHT22;2482;49.154;8.254;2022-11-25T06:30:09;4.50;99.90
4934;DHT22;2482;49.154;8.254;2022-11-25T06:32:39;4.20;99.90
4934;DHT22;2482;49.154;8.254;2022-11-25T06:35:06;4.40;99.90
4934;DHT22;2482;49.154;8.254;2022-11-25T06:37:34;4.20;99.90
4934;DHT22;2482;49.154;8.254;2022-11-25T06:40:01;4.40;99.90
4934;DHT22;2482;49.154;8.254;2022-11-25T06:42:29;4.60;99.90
4934;DHT22;2482;49.154;8.254;2022-11-25T06:44:56;4.30;99.90
4934;DHT22;2482;49.154;8.254;2022-11-25T06:47:23;4.40;99.90
4934;DHT22;2482;49.154;8.254;2022-11-25T06:49:50;4.50;99.90
4934;DHT22;2482;49.154;8.254;2022-11-25T06:52:17;4.60;99.90
4934;DHT22;2482;49.154;8.254;2022-11-25T06:54:44;4.90;99.90
4934;DHT22;2482;49.154;8.254;2022-11-25T06:57:15;4.80;99.90
4934;DHT22;2482;49.154;8.254;2022-11-25T06:59:43;4.80;99.90
4934;DHT22;2482;49.154;8.254;2022-11-25T07:02:11;4.50;99.90
4934;DHT22;2482;49.154;8.254;2022-11-25T07:04:39;4.80;99.90
4934;DHT22;2482;49.154;8.254;2022-11-25T07:07:06;4.70;99.90
4934;DHT22;2482;49.154;8.254;2022-11-25T07:09:35;4.70;99.90
4934;DHT22;2482;49.154;8.254;2022-11-25T07:12:03;4.70;99.90
4934;DHT22;2482;49.154;8.254;2022-11-25T07:14:31;4.70;99.90
4934;DHT22;2482;49.154;8.254;2022-11-25T07:16:58;4.90;99.90
4934;DHT22;2482;49.154;8.254;2022-11-25T07:19:25;4.90;99.90
4934;DHT22;2482;49.154;8.254;2022-11-25T07:21:52;4.80;99.90
4934;DHT22;2482;49.154;8.254;2022-11-25T07:24:19;4.80;99.90
4934;DHT22;2482;49.154;8.254;2022-11-25T07:26:46;4.90;99.90
4934;DHT22;2482;49.154;8.254;2022-11-25T07:29:14;5.00;99.90
4934;DHT22;2482;49.154;8.254;2022-11-25T07:32:02;5.20;99.90
4934;DHT22;2482;49.154;8.254;2022-11-25T07:34:36;5.10;99.90
4934;DHT22;2482;49.154;8.254;2022-11-25T07:37:03;5.10;99.90
4934;DHT22;2482;49.154;8.254;2022-11-25T07:39:30;5.30;99.90
4934;DHT22;2482;49.154;8.254;2022-11-25T07:41:58;5.40;99.90
4934;DHT22;2482;49.154;8.254;2022-11-25T07:44:25;5.40;99.90
4934;DHT22;2482;49.154;8.254;2022-11-25T07:46:52;5.60;99.90
4934;DHT22;2482;49.154;8.254;2022-11-25T07:49:21;5.50;99.90
4934;DHT22;2482;49.154;8.254;2022-11-25T07:51:53;5.80;99.90
4934;DHT22;2482;49.154;8.254;2022-11-25T07:54:22;5.80;99.90
4934;DHT22;2482;49.154;8.254;2022-11-25T07:56:50;5.90;99.90
4934;DHT22;2482;49.154;8.254;2022-11-25T07:59:19;5.70;99.90
4934;DHT22;2482;49.154;8.254;2022-11-25T08:01:52;5.90;99.90
4934;DHT22;2482;49.154;8.254;2022-11-25T08:04:21;6.10;99.90
4934;DHT22;2482;49.154;8.254;2022-11-25T08:06:50;6.10;99.90
4934;DHT22;2482;49.154;8.254;2022-11-25T08:09:21;6.10;99.90
4934;DHT22;2482;49.154;8.254;2022-11-25T08:11:51;6.40;99.90
4934;DHT22;2482;49.154;8.254;2022-11-25T08:14:19;6.50;99.90
4934;DHT22;2482;49.154;8.254;2022-11-25T08:16:46;6.50;99.90
4934;DHT22;2482;49.154;8.254;2022-11-25T08:19:15;6.50;99.90
4934;DHT22;2482;49.154;8.254;2022-11-25T08:21:43;6.50;99.90
4934;DHT22;2482;49.154;8.254;2022-11-25T08:24:19;6.60;99.90
4934;DHT22;2482;49.154;8.254;2022-11-25T08:26:48;6.80;99.90
4934;DHT22;2482;49.154;8.254;2022-11-25T08:29:17;6.80;99.90
4934;DHT22;2482;49.154;8.254;2022-11-25T08:31:45;6.70;99.90
4934;DHT22;2482;49.154;8.254;2022-11-25T08:34:22;6.70;99.90
4934;DHT22;2482;49.154;8.254;2022-11-25T08:36:50;6.70;99.90
4934;DHT22;2482;49.154;8.254;2022-11-25T08:39:19;6.70;99.90
4934;DHT22;2482;49.154;8.254;2022-11-25T08:42:07;6.80;99.90
4934;DHT22;2482;49.154;8.254;2022-11-25T08:44:34;6.80;99.90
4934;DHT22;2482;49.154;8.254;2022-11-25T08:47:01;6.80;99.90
4934;DHT22;2482;49.154;8.254;2022-11-25T08:49:29;6.70;99.90
4934;DHT22;2482;49.154;8.254;2022-11-25T08:52:01;6.70;99.90
4934;DHT22;2482;49.154;8.254;2022-11-25T08:54:30;6.60;99.90
4934;DHT22;2482;49.154;8.254;2022-11-25T08:56:57;6.70;99.90
4934;DHT22;2482;49.154;8.254;2022-11-25T08:59:24;6.70;99.90
4934;DHT22;2482;49.154;8.254;2022-11-25T09:01:51;6.60;99.90
4934;DHT22;2482;49.154;8.254;2022-11-25T09:04:19;6.70;99.90
4934;DHT22;2482;49.154;8.254;2022-11-25T09:06:46;6.80;99.90
4934;DHT22;2482;49.154;8.254;2022-11-25T09:09:13;6.60;99.90
4934;DHT22;2482;49.154;8.254;2022-11-25T09:11:41;6.40;99.90
4934;DHT22;2482;49.154;8.254;2022-11-25T09:14:08;6.50;99.90
4934;DHT22;2482;49.154;8.254;2022-11-25T09:16:36;6.80;99.90
4934;DHT22;2482;49.154;8.254;2022-11-25T09:19:03;6.50;99.90
4934;DHT22;2482;49.154;8.254;2022-11-25T09:21:30;6.70;99.90
4934;DHT22;2482;49.154;8.254;2022-11-25T09:23:58;6.60;99.90
4934;DHT22;2482;49.154;8.254;2022-11-25T09:26:28;6.70;99.90
4934;DHT22;2482;49.154;8.254;2022-11-25T09:28:56;6.80;99.90
4934;DHT22;2482;49.154;8.254;2022-11-25T09:31:23;6.80;99.90
4934;DHT22;2482;49.154;8.254;2022-11-25T09:33:50;6.90;99.90
4934;DHT22;2482;49.154;8.254;2022-11-25T09:36:20;7.00;99.90
4934;DHT22;2482;49.154;8.254;2022-11-25T09:38:47;6.70;99.90
4934;DHT22;2482;49.154;8.254;2022-11-25T09:50:47;7.00;99.90
4934;DHT22;2482;49.154;8.254;2022-11-25T09:55:50;7.30;99.90
4934;DHT22;2482;49.154;8.254;2022-11-25T10:02:00;7.40;99.90
4934;DHT22;2482;49.154;8.254;2022-11-25T10:04:57;7.50;99.90
4934;DHT22;2482;49.154;8.254;2022-11-25T10:07:45;7.70;99.90
4934;DHT22;2482;49.154;8.254;2022-11-25T10:10:25;7.70;99.90
4934;DHT22;2482;49.154;8.254;2022-11-25T10:12:57;7.80;99.90
4934;DHT22;2482;49.154;8.254;2022-11-25T10:15:39;7.60;99.90
4934;DHT22;2482;49.154;8.254;2022-11-25T10:18:22;7.80;99.90
4934;DHT22;2482;49.154;8.254;2022-11-25T10:20:54;8.00;99.90
4934;DHT22;2482;49.154;8.254;2022-11-25T10:23:33;8.10;99.90
4934;DHT22;2482;49.154;8.254;2022-11-25T10:26:11;8.10;99.90
4934;DHT22;2482;49.154;8.254;2022-11-25T10:29:26;8.10;99.90
4934;DHT22;2482;49.154;8.254;2022-11-25T10:32:17;8.10;99.90
4934;DHT22;2482;49.154;8.254;2022-11-25T10:34:51;8.20;99.90
4934;DHT22;2482;49.154;8.254;2022-11-25T10:37:29;8.30;99.90
4934;DHT22;2482;49.154;8.254;2022-11-25T10:39:59;8.40;99.90
4934;DHT22;2482;49.154;8.254;2022-11-25T10:42:27;8.40;99.90
4934;DHT22;2482;49.154;8.254;2022-11-25T10:44:54;8.70;99.90
4934;DHT22;2482;49.154;8.254;2022-11-25T10:55:28;9.00;99.90
4934;DHT22;2482;49.154;8.254;2022-11-25T10:57:58;9.00;99.90
4934;DHT22;2482;49.154;8.254;2022-11-25T11:00:33;9.10;99.90
4934;DHT22;2482;49.154;8.254;2022-11-25T11:03:18;9.00;99.90
4934;DHT22;2482;49.154;8.254;2022-11-25T11:05:51;9.10;99.90
4934;DHT22;2482;49.154;8.254;2022-11-25T11:08:27;9.10;99.90
4934;DHT22;2482;49.154;8.254;2022-11-25T11:11:16;8.90;99.90
4934;DHT22;2482;49.154;8.254;2022-11-25T11:13:45;9.00;99.90
4934;DHT22;2482;49.154;8.254;2022-11-25T11:16:41;9.10;99.90
4934;DHT22;2482;49.154;8.254;2022-11-25T11:19:26;9.10;99.90
4934;DHT22;2482;49.154;8.254;2022-11-25T11:21:56;8.90;99.90
4934;DHT22;2482;49.154;8.254;2022-11-25T11:24:29;9.10;99.90
4934;DHT22;2482;49.154;8.254;2022-11-25T11:29:42;9.20;99.90
4934;DHT22;2482;49.154;8.254;2022-11-25T11:32:21;9.40;99.90
4934;DHT22;2482;49.154;8.254;2022-11-25T11:41:48;9.60;99.90
4934;DHT22;2482;49.154;8.254;2022-11-25T11:46:39;9.80;99.90
4934;DHT22;2482;49.154;8.254;2022-11-25T11:49:18;9.90;99.90
4934;DHT22;2482;49.154;8.254;2022-11-25T11:52:19;9.80;99.90
4934;DHT22;2482;49.154;8.254;2022-11-25T11:55:00;9.90;99.90
4934;DHT22;2482;49.154;8.254;2022-11-25T12:00:28;10.10;99.90
4934;DHT22;2482;49.154;8.254;2022-11-25T12:03:03;10.00;99.90
4934;DHT22;2482;49.154;8.254;2022-11-25T12:05:39;10.00;99.90
4934;DHT22;2482;49.154;8.254;2022-11-25T12:11:13;10.00;99.90
4934;DHT22;2482;49.154;8.254;2022-11-25T12:14:03;10.00;99.90
4934;DHT22;2482;49.154;8.254;2022-11-25T12:16:55;10.00;99.90
4934;DHT22;2482;49.154;8.254;2022-11-25T12:19:32;10.00;99.90
4934;DHT22;2482;49.154;8.254;2022-11-25T12:22:06;9.80;99.90
4934;DHT22;2482;49.154;8.254;2022-11-25T12:27:40;10.00;99.90
4934;DHT22;2482;49.154;8.254;2022-11-25T12:30:12;10.30;99.90
4934;DHT22;2482;49.154;8.254;2022-11-25T12:33:19;10.50;99.90
4934;DHT22;2482;49.154;8.254;2022-11-25T12:36:07;10.70;99.90
4934;DHT22;2482;49.154;8.254;2022-11-25T12:38:59;10.80;99.90
4934;DHT22;2482;49.154;8.254;2022-11-25T12:47:17;10.70;99.90
4934;DHT22;2482;49.154;8.254;2022-11-25T12:49:47;10.80;99.90
4934;DHT22;2482;49.154;8.254;2022-11-25T12:55:19;11.00;99.90
4934;DHT22;2482;49.154;8.254;2022-11-25T13:04:16;11.00;99.90
4934;DHT22;2482;49.154;8.254;2022-11-25T13:09:59;10.90;99.90
4934;DHT22;2482;49.154;8.254;2022-11-25T13:12:51;10.90;99.90
4934;DHT22;2482;49.154;8.254;2022-11-25T13:18:10;10.80;99.90
4934;DHT22;2482;49.154;8.254;2022-11-25T13:20:47;10.60;99.90
4934;DHT22;2482;49.154;8.254;2022-11-25T13:25:46;10.60;99.90
4934;DHT22;2482;49.154;8.254;2022-11-25T13:36:41;10.90;99.90
4934;DHT22;2482;49.154;8.254;2022-11-25T13:41:58;10.80;99.90
4934;DHT22;2482;49.154;8.254;2022-11-25T13:44:32;10.70;99.90
4934;DHT22;2482;49.154;8.254;2022-11-25T13:53:07;10.40;99.90
4934;DHT22;2482;49.154;8.254;2022-11-25T13:55:45;10.30;99.90
4934;DHT22;2482;49.154;8.254;2022-11-25T13:58:17;10.30;99.90
4934;DHT22;2482;49.154;8.254;2022-11-25T14:01:22;10.20;99.90
4934;DHT22;2482;49.154;8.254;2022-11-25T14:03:56;10.20;99.90
4934;DHT22;2482;49.154;8.254;2022-11-25T14:22:27;10.20;99.90
4934;DHT22;2482;49.154;8.254;2022-11-25T14:25:26;10.10;99.90
4934;DHT22;2482;49.154;8.254;2022-11-25T14:28:42;10.10;99.90
4934;DHT22;2482;49.154;8.254;2022-11-25T14:31:16;10.10;99.90
4934;DHT22;2482;49.154;8.254;2022-11-25T14:33:51;10.00;99.90
4934;DHT22;2482;49.154;8.254;2022-11-25T14:36:34;10.10;99.90
4934;DHT22;2482;49.154;8.254;2022-11-25T14:39:08;10.10;99.90
4934;DHT22;2482;49.154;8.254;2022-11-25T14:41:49;10.00;99.90
4934;DHT22;2482;49.154;8.254;2022-11-25T14:44:26;10.00;99.90
4934;DHT22;2482;49.154;8.254;2022-11-25T14:46:57;10.20;99.90
4934;DHT22;2482;49.154;8.254;2022-11-25T14:49:49;10.20;99.90
4934;DHT22;2482;49.154;8.254;2022-11-25T14:52:39;10.30;99.90
4934;DHT22;2482;49.154;8.254;2022-11-25T14:55:10;10.10;99.90
4934;DHT22;2482;49.154;8.254;2022-11-25T14:57:39;10.10;99.90
4934;DHT22;2482;49.154;8.254;2022-11-25T15:00:13;10.30;99.90
4934;DHT22;2482;49.154;8.254;2022-11-25T15:02:59;10.20;99.90
4934;DHT22;2482;49.154;8.254;2022-11-25T15:05:35;9.90;99.90
4934;DHT22;2482;49.154;8.254;2022-11-25T15:08:10;9.90;99.90
4934;DHT22;2482;49.154;8.254;2022-11-25T15:10:56;9.80;99.90
4934;DHT22;2482;49.154;8.254;2022-11-25T15:13:41;9.70;99.90
4934;DHT22;2482;49.154;8.254;2022-11-25T15:16:11;9.70;99.90
4934;DHT22;2482;49.154;8.254;2022-11-25T15:18:53;9.70;99.90
4934;DHT22;2482;49.154;8.254;2022-11-25T15:21:33;9.70;99.90
4934;DHT22;2482;49.154;8.254;2022-11-25T15:24:42;9.90;99.90
4934;DHT22;2482;49.154;8.254;2022-11-25T15:27:26;9.90;99.90
4934;DHT22;2482;49.154;8.254;2022-11-25T15:29:55;10.00;99.90
4934;DHT22;2482;49.154;8.254;2022-11-25T15:32:29;10.00;99.90
4934;DHT22;2482;49.154;8.254;2022-11-25T15:34:59;9.90;99.90
4934;DHT22;2482;49.154;8.254;2022-11-25T15:37:27;9.80;99.90
4934;DHT22;2482;49.154;8.254;2022-11-25T15:40:30;9.80;99.90
4934;DHT22;2482;49.154;8.254;2022-11-25T15:42:59;9.70;99.90
4934;DHT22;2482;49.154;8.254;2022-11-25T15:45:34;9.60;99.90
4934;DHT22;2482;49.154;8.254;2022-11-25T15:48:25;9.50;99.90
4934;DHT22;2482;49.154;8.254;2022-11-25T15:54:13;9.30;99.90
4934;DHT22;2482;49.154;8.254;2022-11-25T15:56:50;9.20;99.90
4934;DHT22;2482;49.154;8.254;2022-11-25T15:59:46;9.20;99.90
4934;DHT22;2482;49.154;8.254;2022-11-25T16:10:37;8.60;99.90
4934;DHT22;2482;49.154;8.254;2022-11-25T16:13:30;8.70;99.90
4934;DHT22;2482;49.154;8.254;2022-11-25T16:16:07;8.50;99.90
4934;DHT22;2482;49.154;8.254;2022-11-25T16:24:28;8.30;99.90
4934;DHT22;2482;49.154;8.254;2022-11-25T16:29:51;8.60;99.90
4934;DHT22;2482;49.154;8.254;2022-11-25T16:32:29;8.60;99.90
4934;DHT22;2482;49.154;8.254;2022-11-25T16:35:10;8.50;99.90
4934;DHT22;2482;49.154;8.254;2022-11-25T16:37:38;8.60;99.90
4934;DHT22;2482;49.154;8.254;2022-11-25T16:40:12;8.70;99.90
4934;DHT22;2482;49.154;8.254;2022-11-25T16:42:40;8.80;99.90
4934;DHT22;2482;49.154;8.254;2022-11-25T16:45:30;8.70;99.90
4934;DHT22;2482;49.154;8.254;2022-11-25T16:47:57;8.80;99.90
4934;DHT22;2482;49.154;8.254;2022-11-25T16:50:24;8.80;99.90
4934;DHT22;2482;49.154;8.254;2022-11-25T16:52:51;8.70;99.90
4934;DHT22;2482;49.154;8.254;2022-11-25T16:55:18;8.60;99.90
4934;DHT22;2482;49.154;8.254;2022-11-25T16:57:46;8.50;99.90
4934;DHT22;2482;49.154;8.254;2022-11-25T17:00:14;8.60;99.90
4934;DHT22;2482;49.154;8.254;2022-11-25T17:02:42;8.30;99.90
4934;DHT22;2482;49.154;8.254;2022-11-25T17:05:19;8.20;99.90
4934;DHT22;2482;49.154;8.254;2022-11-25T17:07:48;8.20;99.90
4934;DHT22;2482;49.154;8.254;2022-11-25T17:10:19;8.10;99.90
4934;DHT22;2482;49.154;8.254;2022-11-25T17:12:47;8.20;99.90
4934;DHT22;2482;49.154;8.254;2022-11-25T17:15:18;8.20;99.90
4934;DHT22;2482;49.154;8.254;2022-11-25T17:17:46;8.10;99.90
4934;DHT22;2482;49.154;8.254;2022-11-25T17:20:16;8.10;99.90
4934;DHT22;2482;49.154;8.254;2022-11-25T17:22:47;8.20;99.90
4934;DHT22;2482;49.154;8.254;2022-11-25T17:25:14;8.30;99.90
4934;DHT22;2482;49.154;8.254;2022-11-25T17:27:42;8.20;99.90
4934;DHT22;2482;49.154;8.254;2022-11-25T17:30:25;8.10;99.90
4934;DHT22;2482;49.154;8.254;2022-11-25T17:33:06;7.90;99.90
4934;DHT22;2482;49.154;8.254;2022-11-25T17:35:38;8.10;99.90
4934;DHT22;2482;49.154;8.254;2022-11-25T17:38:15;8.00;99.90
4934;DHT22;2482;49.154;8.254;2022-11-25T17:40:43;8.10;99.90
4934;DHT22;2482;49.154;8.254;2022-11-25T17:43:16;8.00;99.90
4934;DHT22;2482;49.154;8.254;2022-11-25T17:45:45;8.00;99.90
4934;DHT22;2482;49.154;8.254;2022-11-25T17:48:14;7.90;99.90
4934;DHT22;2482;49.154;8.254;2022-11-25T17:50:43;7.80;99.90
4934;DHT22;2482;49.154;8.254;2022-11-25T17:53:11;7.90;99.90
4934;DHT22;2482;49.154;8.254;2022-11-25T17:55:38;7.80;99.90
4934;DHT22;2482;49.154;8.254;2022-11-25T17:58:09;7.80;99.90
4934;DHT22;2482;49.154;8.254;2022-11-25T18:00:37;7.70;99.90
4934;DHT22;2482;49.154;8.254;2022-11-25T18:03:16;7.70;99.90
4934;DHT22;2482;49.154;8.254;2022-11-25T18:05:43;7.70;99.90
4934;DHT22;2482;49.154;8.254;2022-11-25T18:08:11;7.60;99.90
4934;DHT22;2482;49.154;8.254;2022-11-25T18:10:38;7.60;99.90
4934;DHT22;2482;49.154;8.254;2022-11-25T18:13:05;7.70;99.90
4934;DHT22;2482;49.154;8.254;2022-11-25T18:15:33;7.60;99.90
4934;DHT22;2482;49.154;8.254;2022-11-25T18:18:03;7.60;99.90
4934;DHT22;2482;49.154;8.254;2022-11-25T18:20:38;7.70;99.90
4934;DHT22;2482;49.154;8.254;2022-11-25T18:23:07;7.60;99.90
4934;DHT22;2482;49.154;8.254;2022-11-25T18:25:35;7.80;99.90
4934;DHT22;2482;49.154;8.254;2022-11-25T18:28:03;7.90;99.90
4934;DHT22;2482;49.154;8.254;2022-11-25T18:30:32;8.00;99.90
4934;DHT22;2482;49.154;8.254;2022-11-25T18:33:00;8.10;99.90
4934;DHT22;2482;49.154;8.254;2022-11-25T18:35:30;8.10;99.90
4934;DHT22;2482;49.154;8.254;2022-11-25T18:38:03;7.90;99.90
4934;DHT22;2482;49.154;8.254;2022-11-25T18:40:30;7.80;99.90
4934;DHT22;2482;49.154;8.254;2022-11-25T18:43:03;7.80;99.90
4934;DHT22;2482;49.154;8.254;2022-11-25T18:45:32;7.70;99.90
4934;DHT22;2482;49.154;8.254;2022-11-25T18:48:14;7.70;99.90
4934;DHT22;2482;49.154;8.254;2022-11-25T18:50:46;7.60;99.90
4934;DHT22;2482;49.154;8.254;2022-11-25T18:53:14;7.60;99.90
4934;DHT22;2482;49.154;8.254;2022-11-25T18:55:42;7.60;99.90
4934;DHT22;2482;49.154;8.254;2022-11-25T18:58:31;7.50;99.90